Time;durP1;ratioP1;P1;durP2;ratioP2;P2;SDS_P1;SDS_P2;PMS_P1;PMS_P2;Temp;Humidity;BMP_temperature;BMP_pressure;BME280_temperature;BME280_humidity;BME280_pressure;Samples;Min_cycle;Max_cycle;Signal;HPM_P1;HPM_P2
2023/02/17 00:01:28;;;;;;;62.63;34.05;;;9.70;99.90;;;;;;5017784;28;20034;-74
2023/02/17 00:03:58;;;;;;;60.13;33.95;;;9.70;99.90;;;;;;5011040;28;20782;-74
2023/02/17 00:06:27;;;;;;;53.30;32.28;;;9.70;99.90;;;;;;5017041;28;20096;-74
2023/02/17 00:08:53;;;;;;;55.90;32.30;;;9.70;99.90;;;;;;5020489;28;20072;-74
2023/02/17 00:11:19;;;;;;;59.20;33.22;;;9.70;99.90;;;;;;5017407;28;20045;-73
2023/02/17 00:13:45;;;;;;;59.22;32.22;;;9.70;99.90;;;;;;5017095;28;20091;-74
2023/02/17 00:16:24;;;;;;;53.75;31.58;;;9.70;99.90;;;;;;5013159;28;20514;-73
2023/02/17 00:18:55;;;;;;;73.53;37.30;;;9.70;99.90;;;;;;5013203;28;20044;-73
2023/02/17 00:21:23;;;;;;;59.17;35.00;;;9.70;99.90;;;;;;5019248;28;20052;-73
2023/02/17 00:23:50;;;;;;;65.90;37.42;;;9.70;99.90;;;;;;5017983;28;20052;-74
2023/02/17 00:26:17;;;;;;;64.85;37.92;;;9.70;99.90;;;;;;5014457;28;20065;-74
2023/02/17 00:28:43;;;;;;;61.85;36.95;;;9.70;99.90;;;;;;5013839;28;20085;-73
2023/02/17 00:31:13;;;;;;;70.85;40.08;;;9.70;99.90;;;;;;5012919;28;20048;-73
2023/02/17 00:33:39;;;;;;;70.00;41.17;;;9.70;99.90;;;;;;5011378;28;20041;-74
2023/02/17 00:36:08;;;;;;;87.82;42.63;;;9.70;99.90;;;;;;5017992;28;20033;-73
2023/02/17 00:38:33;;;;;;;68.75;42.33;;;9.70;99.90;;;;;;5017166;28;20049;-73
2023/02/17 00:40:59;;;;;;;78.68;42.70;;;9.70;99.90;;;;;;5013125;28;20095;-74
2023/02/17 00:43:25;;;;;;;81.05;43.28;;;9.70;99.90;;;;;;5011298;28;20042;-73
2023/02/17 00:45:51;;;;;;;88.25;44.95;;;9.70;99.90;;;;;;5018007;28;20512;-74
2023/02/17 00:48:16;;;;;;;73.20;44.58;;;9.70;99.90;;;;;;5020171;28;20057;-74
2023/02/17 00:50:42;;;;;;;81.95;45.80;;;9.80;99.90;;;;;;5020941;28;20034;-73
2023/02/17 00:53:08;;;;;;;86.82;47.92;;;9.80;99.90;;;;;;5015135;28;20095;-74
2023/02/17 00:55:34;;;;;;;93.45;48.63;;;9.80;99.90;;;;;;5028753;28;20096;-73
2023/02/17 00:57:59;;;;;;;90.82;50.17;;;9.80;99.90;;;;;;5028411;28;20052;-74
2023/02/17 01:00:25;;;;;;;109.55;49.85;;;9.70;99.90;;;;;;5015732;28;20077;-73
2023/02/17 01:02:54;;;;;;;87.22;47.35;;;9.80;99.90;;;;;;5016988;28;20129;-73
2023/02/17 01:05:19;;;;;;;87.00;49.45;;;9.80;99.90;;;;;;5018632;28;20141;-74
2023/02/17 01:07:45;;;;;;;99.68;50.80;;;9.80;99.90;;;;;;5030861;28;20124;-73
2023/02/17 01:10:11;;;;;;;80.45;48.90;;;9.70;99.90;;;;;;5022620;28;20065;-73
2023/02/17 01:12:37;;;;;;;97.93;53.00;;;9.70;99.90;;;;;;5022742;28;20041;-74
2023/02/17 01:15:04;;;;;;;88.70;50.35;;;9.70;99.90;;;;;;5020222;28;20041;-73
2023/02/17 01:17:29;;;;;;;101.13;53.55;;;9.80;99.90;;;;;;5023186;28;20065;-73
2023/02/17 01:19:56;;;;;;;113.50;56.25;;;9.80;99.90;;;;;;5010636;28;20144;-74
2023/02/17 01:22:22;;;;;;;96.72;53.88;;;9.80;99.90;;;;;;5016616;28;20041;-73
2023/02/17 01:24:48;;;;;;;104.22;55.95;;;9.80;99.90;;;;;;5024270;28;20045;-73
2023/02/17 01:27:14;;;;;;;94.00;55.45;;;9.80;99.90;;;;;;5019868;28;20041;-73
2023/02/17 01:29:40;;;;;;;94.72;56.10;;;9.80;99.90;;;;;;5019753;28;20041;-73
2023/02/17 01:32:06;;;;;;;107.20;58.13;;;9.70;99.90;;;;;;5016571;28;20041;-73
2023/02/17 01:34:31;;;;;;;88.90;55.30;;;9.80;99.90;;;;;;5009695;28;20099;-73
2023/02/17 01:36:57;;;;;;;103.40;57.85;;;9.80;99.90;;;;;;5014611;28;20061;-73
2023/02/17 01:39:23;;;;;;;96.18;56.70;;;9.80;99.90;;;;;;5016224;28;20041;-73
2023/02/17 01:41:48;;;;;;;90.70;55.53;;;9.70;99.90;;;;;;5022832;28;20041;-73
2023/02/17 01:44:20;;;;;;;89.75;55.78;;;9.80;99.90;;;;;;5027110;28;20041;-74
2023/02/17 01:46:48;;;;;;;90.03;57.67;;;9.80;99.90;;;;;;5018869;28;20088;-74
2023/02/17 01:49:35;;;;;;;86.65;56.33;;;9.80;99.90;;;;;;5022195;28;20602;-73
2023/02/17 01:52:15;;;;;;;89.20;57.67;;;9.80;99.90;;;;;;5009868;28;20096;-73
2023/02/17 01:54:46;;;;;;;88.35;57.90;;;9.80;99.90;;;;;;5016891;28;20420;-73
2023/02/17 01:57:16;;;;;;;76.43;53.63;;;9.80;99.90;;;;;;5022621;28;20501;-73
2023/02/17 01:59:44;;;;;;;79.88;54.97;;;9.80;99.90;;;;;;5034163;28;20046;-73
2023/02/17 02:02:38;;;;;;;79.35;53.92;;;9.80;99.90;;;;;;5014122;28;20053;-73
2023/02/17 02:05:36;;;;;;;78.55;53.17;;;9.80;99.90;;;;;;4974358;28;20373;-73
2023/02/17 02:08:29;;;;;;;72.65;51.88;;;9.80;99.90;;;;;;4954353;28;20197;-75
2023/02/17 02:10:55;;;;;;;68.53;50.72;;;9.90;99.90;;;;;;4981786;28;20063;-74
2023/02/17 02:13:21;;;;;;;69.15;50.88;;;9.90;99.90;;;;;;4967720;28;20045;-75
2023/02/17 02:16:21;;;;;;;68.68;50.15;;;9.90;99.90;;;;;;4960940;28;20054;-74
2023/02/17 02:19:36;;;;;;;69.95;50.97;;;9.90;99.90;;;;;;4943065;28;20050;-75
2023/02/17 02:22:49;;;;;;;75.53;53.33;;;9.90;99.90;;;;;;4940783;29;20088;-74
2023/02/17 02:25:33;;;;;;;70.28;51.03;;;9.80;99.90;;;;;;4981859;28;20086;-74
2023/02/17 02:28:36;;;;;;;69.50;51.33;;;9.80;99.90;;;;;;4949420;28;20050;-74
2023/02/17 02:31:37;;;;;;;69.63;51.67;;;9.90;99.90;;;;;;4979872;28;21136;-74
2023/02/17 02:34:12;;;;;;;71.75;51.83;;;9.80;99.90;;;;;;4982349;28;20548;-73
2023/02/17 02:36:47;;;;;;;67.47;52.05;;;9.80;99.90;;;;;;4973544;28;20050;-74
2023/02/17 02:39:18;;;;;;;66.65;49.53;;;9.80;99.90;;;;;;4952809;28;20065;-74
2023/02/17 02:41:49;;;;;;;72.05;53.15;;;9.90;99.90;;;;;;4982708;28;20148;-74
2023/02/17 02:44:18;;;;;;;67.53;49.60;;;9.90;99.90;;;;;;4980153;28;20109;-75
2023/02/17 02:46:44;;;;;;;68.70;50.95;;;9.90;99.90;;;;;;4976203;28;20059;-74
2023/02/17 02:49:11;;;;;;;67.65;50.95;;;9.80;99.90;;;;;;4980654;28;20054;-74
2023/02/17 02:52:01;;;;;;;67.13;51.88;;;9.80;99.90;;;;;;4966384;28;20082;-74
2023/02/17 02:54:55;;;;;;;74.45;52.33;;;9.80;99.90;;;;;;4976782;28;20051;-74
2023/02/17 02:58:01;;;;;;;70.88;50.78;;;9.90;99.90;;;;;;4950890;28;20062;-76
2023/02/17 03:00:43;;;;;;;70.30;51.60;;;9.90;99.90;;;;;;4994335;28;20057;-74
2023/02/17 03:03:24;;;;;;;80.25;57.88;;;9.90;99.90;;;;;;5024408;28;20500;-74
2023/02/17 03:06:01;;;;;;;74.10;53.15;;;9.90;99.90;;;;;;5038036;28;20407;-73
2023/02/17 03:08:51;;;;;;;70.25;50.35;;;9.90;99.90;;;;;;5025793;28;20060;-73
2023/02/17 03:11:31;;;;;;;71.07;51.22;;;9.90;99.90;;;;;;5012851;28;20507;-74
2023/02/17 03:14:18;;;;;;;76.17;53.40;;;9.90;99.90;;;;;;5010802;28;20124;-74
2023/02/17 03:16:45;;;;;;;78.85;52.85;;;9.90;99.90;;;;;;5025075;28;20037;-73
2023/02/17 03:19:18;;;;;;;79.35;53.95;;;9.90;99.90;;;;;;5023250;28;20048;-73
2023/02/17 03:22:10;;;;;;;70.45;50.45;;;9.80;99.90;;;;;;5017702;28;20058;-74
2023/02/17 03:24:36;;;;;;;70.72;52.97;;;9.90;99.90;;;;;;5032548;28;20100;-74
2023/02/17 03:27:02;;;;;;;73.72;51.63;;;9.80;99.90;;;;;;5021834;28;20069;-74
2023/02/17 03:29:29;;;;;;;69.47;48.63;;;9.80;99.90;;;;;;5020988;28;20048;-74
2023/02/17 03:31:55;;;;;;;69.88;49.92;;;9.90;99.90;;;;;;5025331;28;20057;-74
2023/02/17 03:34:21;;;;;;;67.78;48.45;;;9.80;99.90;;;;;;4987360;28;20685;-74
2023/02/17 03:36:47;;;;;;;66.40;49.15;;;9.80;99.90;;;;;;5002489;28;20061;-75
2023/02/17 03:39:13;;;;;;;69.53;50.53;;;9.80;99.90;;;;;;5011998;28;20046;-74
2023/02/17 03:41:38;;;;;;;71.30;50.97;;;9.80;99.90;;;;;;5016683;28;20037;-74
2023/02/17 03:44:04;;;;;;;63.72;49.42;;;9.90;99.90;;;;;;5016675;28;20049;-73
2023/02/17 03:46:30;;;;;;;64.55;47.80;;;9.80;99.90;;;;;;5017714;28;20432;-73
2023/02/17 03:48:56;;;;;;;69.55;51.80;;;9.80;99.90;;;;;;5001490;28;20073;-74
2023/02/17 03:51:23;;;;;;;63.00;51.28;;;9.80;99.90;;;;;;4989428;28;20086;-74
2023/02/17 03:53:49;;;;;;;67.10;50.80;;;9.80;99.90;;;;;;5016006;28;20472;-75
2023/02/17 03:56:16;;;;;;;69.00;51.42;;;9.80;99.90;;;;;;5006712;28;20096;-74
2023/02/17 03:58:42;;;;;;;69.57;51.33;;;9.80;99.90;;;;;;5008219;28;20372;-74
2023/02/17 04:01:10;;;;;;;66.07;49.22;;;9.80;99.90;;;;;;5012778;28;20677;-74
2023/02/17 04:03:37;;;;;;;68.32;51.08;;;9.80;99.90;;;;;;5012949;28;20072;-74
2023/02/17 04:06:03;;;;;;;59.53;46.80;;;9.80;99.90;;;;;;5018031;28;20131;-74
2023/02/17 04:08:29;;;;;;;61.70;45.63;;;9.80;99.90;;;;;;5013378;28;20041;-75
2023/02/17 04:10:58;;;;;;;60.97;46.15;;;9.70;99.90;;;;;;5017714;28;22129;-74
2023/02/17 04:13:27;;;;;;;66.97;49.33;;;9.80;99.90;;;;;;5007506;28;20049;-75
2023/02/17 04:15:53;;;;;;;57.95;45.28;;;9.80;99.90;;;;;;5008425;28;20054;-74
2023/02/17 04:18:20;;;;;;;60.17;44.60;;;9.80;99.90;;;;;;4991740;28;20119;-74
2023/02/17 04:20:48;;;;;;;57.05;43.72;;;9.80;99.90;;;;;;5003349;28;20471;-75
2023/02/17 04:23:15;;;;;;;62.22;44.08;;;9.80;99.90;;;;;;5009194;28;20053;-76
2023/02/17 04:25:44;;;;;;;54.03;40.25;;;9.80;99.90;;;;;;5013789;28;20055;-74
2023/02/17 04:28:10;;;;;;;53.17;38.97;;;9.70;99.90;;;;;;5002736;28;20548;-75
2023/02/17 04:30:36;;;;;;;49.47;37.00;;;9.70;99.90;;;;;;5015202;28;20041;-75
2023/02/17 04:33:02;;;;;;;52.65;38.60;;;9.70;99.90;;;;;;5018954;28;20555;-75
2023/02/17 04:35:28;;;;;;;48.38;36.40;;;9.70;99.90;;;;;;5007219;28;20058;-74
2023/02/17 04:37:54;;;;;;;52.90;37.33;;;9.60;99.90;;;;;;5012084;28;20632;-74
2023/02/17 04:40:20;;;;;;;50.28;38.15;;;9.60;99.90;;;;;;5006634;28;20041;-74
2023/02/17 04:42:46;;;;;;;55.38;37.95;;;9.60;99.90;;;;;;5014860;28;20480;-76
2023/02/17 04:45:12;;;;;;;48.38;36.25;;;9.60;99.90;;;;;;5019725;28;20411;-75
2023/02/17 04:47:39;;;;;;;57.35;38.90;;;9.50;99.90;;;;;;5020517;28;20057;-75
2023/02/17 04:50:07;;;;;;;55.95;37.45;;;9.50;99.90;;;;;;5019724;28;20571;-70
2023/02/17 04:52:33;;;;;;;53.67;35.53;;;9.50;99.90;;;;;;5012359;28;20053;-71
2023/02/17 04:54:58;;;;;;;57.15;39.60;;;9.50;99.90;;;;;;5010264;28;20566;-70
2023/02/17 04:57:26;;;;;;;59.97;36.90;;;9.40;99.90;;;;;;5012737;28;20054;-71
2023/02/17 04:59:51;;;;;;;58.42;38.17;;;9.40;99.90;;;;;;5012927;28;20046;-71
2023/02/17 05:02:20;;;;;;;61.20;38.10;;;9.40;99.90;;;;;;5015994;28;20034;-71
2023/02/17 05:04:47;;;;;;;64.57;38.85;;;9.40;99.90;;;;;;5004570;28;20131;-69
2023/02/17 05:07:13;;;;;;;65.75;40.08;;;9.30;99.90;;;;;;4985304;28;20079;-70
2023/02/17 05:09:39;;;;;;;68.78;39.55;;;9.40;99.90;;;;;;5039225;28;20495;-70
2023/02/17 05:12:06;;;;;;;71.63;39.28;;;9.30;99.90;;;;;;5013936;28;20058;-70
2023/02/17 05:14:32;;;;;;;65.20;39.20;;;9.30;99.90;;;;;;5032995;28;20055;-75
2023/02/17 05:16:57;;;;;;;66.97;40.70;;;9.20;99.90;;;;;;4984584;28;20041;-75
2023/02/17 05:19:23;;;;;;;67.70;39.72;;;9.20;99.90;;;;;;5014885;28;20503;-76
2023/02/17 05:21:50;;;;;;;65.85;39.45;;;9.20;99.90;;;;;;5030750;28;20504;-74
2023/02/17 05:24:16;;;;;;;63.20;38.53;;;9.30;99.90;;;;;;5028476;28;20056;-75
2023/02/17 05:26:43;;;;;;;71.60;39.45;;;9.20;99.90;;;;;;5013531;28;20530;-74
2023/02/17 05:29:08;;;;;;;68.05;39.58;;;9.20;99.90;;;;;;5022864;28;20049;-74
2023/02/17 05:31:34;;;;;;;67.35;38.97;;;9.20;99.90;;;;;;5020853;28;20722;-74
2023/02/17 05:34:03;;;;;;;67.47;38.38;;;9.20;99.90;;;;;;5016806;28;20049;-73
2023/02/17 05:36:29;;;;;;;69.30;40.65;;;9.20;99.90;;;;;;5016473;28;20120;-74
2023/02/17 05:38:58;;;;;;;72.30;41.75;;;9.20;99.90;;;;;;5032041;28;20129;-75
2023/02/17 05:41:27;;;;;;;75.25;41.40;;;9.30;99.90;;;;;;5009626;28;20473;-75
2023/02/17 05:43:53;;;;;;;71.70;40.63;;;9.30;99.90;;;;;;5021074;28;20051;-74
2023/02/17 05:46:19;;;;;;;80.82;42.55;;;9.20;99.90;;;;;;5021669;28;20046;-74
2023/02/17 05:48:44;;;;;;;73.43;41.95;;;9.20;99.90;;;;;;5020986;28;20266;-75
2023/02/17 05:51:12;;;;;;;74.78;40.53;;;9.20;99.90;;;;;;5030827;28;20045;-76
2023/02/17 05:53:38;;;;;;;93.15;46.75;;;9.20;99.90;;;;;;5018983;28;20401;-75
2023/02/17 05:56:04;;;;;;;80.32;42.67;;;9.20;99.90;;;;;;5018721;28;20048;-75
2023/02/17 05:58:34;;;;;;;85.15;45.13;;;9.20;99.90;;;;;;5026724;28;20041;-74
2023/02/17 06:01:00;;;;;;;85.28;45.92;;;9.30;99.90;;;;;;5002629;28;20444;-75
2023/02/17 06:03:25;;;;;;;79.57;44.65;;;9.30;99.90;;;;;;5030987;28;20064;-75
2023/02/17 06:05:51;;;;;;;87.90;47.25;;;9.20;99.90;;;;;;5036806;28;20496;-74
2023/02/17 06:08:17;;;;;;;80.18;44.63;;;9.30;99.90;;;;;;5028776;28;20083;-76
2023/02/17 06:10:46;;;;;;;93.40;49.70;;;9.30;99.90;;;;;;5034303;28;20095;-74
2023/02/17 06:13:11;;;;;;;90.65;47.60;;;9.30;99.90;;;;;;5020547;28;20033;-75
2023/02/17 06:15:37;;;;;;;91.90;48.95;;;9.30;99.90;;;;;;5018834;28;20527;-74
2023/02/17 06:18:03;;;;;;;84.80;47.45;;;9.30;99.90;;;;;;5022125;28;20053;-74
2023/02/17 06:20:29;;;;;;;82.82;47.13;;;9.30;99.90;;;;;;4998115;28;20052;-75
2023/02/17 06:22:57;;;;;;;91.85;48.50;;;9.30;99.90;;;;;;5025086;28;20118;-75
2023/02/17 06:25:23;;;;;;;91.32;47.45;;;9.30;99.90;;;;;;5009169;28;20579;-75
2023/02/17 06:27:49;;;;;;;87.75;46.70;;;9.40;99.90;;;;;;5023525;28;20061;-75
2023/02/17 06:30:16;;;;;;;94.05;49.50;;;9.40;99.90;;;;;;4997091;28;20072;-76
2023/02/17 06:32:42;;;;;;;91.13;48.13;;;9.40;99.90;;;;;;5012596;28;21222;-74
2023/02/17 06:35:08;;;;;;;95.50;49.40;;;9.40;99.90;;;;;;5013480;28;20350;-73
2023/02/17 06:37:34;;;;;;;93.15;46.97;;;9.40;99.90;;;;;;5002898;28;20129;-73
2023/02/17 06:40:00;;;;;;;89.95;48.95;;;9.40;99.90;;;;;;5001051;28;20488;-68
2023/02/17 06:42:26;;;;;;;90.35;47.63;;;9.40;99.90;;;;;;5005798;28;20037;-68
2023/02/17 06:44:52;;;;;;;87.30;48.40;;;9.40;99.90;;;;;;5018985;28;20446;-68
2023/02/17 06:47:17;;;;;;;90.47;48.35;;;9.50;99.90;;;;;;5013379;28;20049;-74
2023/02/17 06:49:43;;;;;;;91.95;48.13;;;9.40;99.90;;;;;;4986507;28;20084;-74
2023/02/17 06:52:09;;;;;;;89.97;47.85;;;9.50;99.90;;;;;;5024682;28;20500;-74
2023/02/17 06:54:35;;;;;;;86.40;46.75;;;9.50;99.90;;;;;;5020706;28;20037;-74
2023/02/17 06:57:01;;;;;;;89.20;47.03;;;9.50;99.90;;;;;;5013015;28;20482;-74
2023/02/17 06:59:27;;;;;;;91.38;48.92;;;9.50;99.90;;;;;;5018958;28;20077;-74
2023/02/17 07:01:53;;;;;;;85.82;48.28;;;9.60;99.90;;;;;;5002972;28;20534;-73
2023/02/17 07:04:18;;;;;;;87.93;48.28;;;9.50;99.90;;;;;;5015017;28;20124;-73
2023/02/17 07:06:44;;;;;;;83.72;48.70;;;9.60;99.90;;;;;;4985939;28;20049;-73
2023/02/17 07:09:12;;;;;;;88.75;47.50;;;9.60;99.90;;;;;;5017895;28;20501;-75
2023/02/17 07:11:39;;;;;;;89.63;49.15;;;9.60;99.90;;;;;;5003145;28;20055;-74
2023/02/17 07:14:05;;;;;;;90.45;47.63;;;9.60;99.90;;;;;;5015289;28;20034;-74
2023/02/17 07:16:31;;;;;;;84.05;48.33;;;9.60;99.90;;;;;;5008864;28;20476;-75
2023/02/17 07:18:57;;;;;;;80.43;46.55;;;9.70;99.90;;;;;;5001745;28;20057;-74
2023/02/17 07:21:23;;;;;;;89.60;47.92;;;9.70;99.90;;;;;;4986875;28;20084;-74
2023/02/17 07:23:52;;;;;;;79.97;44.03;;;9.70;99.90;;;;;;4998291;28;20046;-74
2023/02/17 07:26:18;;;;;;;80.28;45.70;;;9.70;99.90;;;;;;5002268;28;20481;-74
2023/02/17 07:28:44;;;;;;;84.35;47.25;;;9.70;99.90;;;;;;5016219;28;20265;-74
2023/02/17 07:31:15;;;;;;;82.47;46.50;;;9.70;99.90;;;;;;5014861;28;20042;-74
2023/02/17 07:33:42;;;;;;;82.07;46.55;;;9.70;99.90;;;;;;5010233;28;20559;-74
2023/02/17 07:36:10;;;;;;;77.40;44.60;;;9.80;99.90;;;;;;5001300;28;20053;-75
2023/02/17 07:38:36;;;;;;;77.97;45.17;;;9.80;99.90;;;;;;5014697;28;20550;-75
2023/02/17 07:41:09;;;;;;;77.68;45.13;;;9.80;99.90;;;;;;5009418;28;20058;-75
2023/02/17 07:43:35;;;;;;;71.68;43.20;;;9.80;99.90;;;;;;4997726;28;20077;-75
2023/02/17 07:46:01;;;;;;;72.50;43.60;;;9.90;99.90;;;;;;5008289;28;20125;-75
2023/02/17 07:48:26;;;;;;;73.40;43.00;;;9.90;99.90;;;;;;5021678;28;20989;-75
2023/02/17 07:50:52;;;;;;;69.88;42.67;;;9.90;99.90;;;;;;5010078;28;20117;-75
2023/02/17 07:53:18;;;;;;;68.68;41.88;;;9.90;99.90;;;;;;5016527;28;20034;-75
2023/02/17 07:55:44;;;;;;;70.60;42.25;;;10.00;99.90;;;;;;5007788;28;20176;-75
2023/02/17 07:58:10;;;;;;;70.60;42.45;;;10.00;99.90;;;;;;5007881;28;20080;-75
2023/02/17 08:00:35;;;;;;;67.32;41.13;;;10.00;99.90;;;;;;5012805;28;20069;-77
2023/02/17 08:03:01;;;;;;;66.28;41.58;;;10.00;99.90;;;;;;5015459;28;20045;-76
2023/02/17 08:05:27;;;;;;;67.68;42.63;;;10.00;99.90;;;;;;5008139;28;20493;-76
2023/02/17 08:13:18;;;;;;;67.13;43.50;;;10.10;99.90;;;;;;5014824;28;20049;-75
2023/02/17 08:13:27;;;;;;;65.18;40.38;;;10.10;99.90;;;;;;5017475;28;20120;-75
2023/02/17 08:15:53;;;;;;;;;;;10.10;99.90;;;;;;4986781;28;20048;-78
2023/02/17 08:18:19;;;;;;;58.95;37.80;;;10.20;99.90;;;;;;5028562;28;19921;-75
2023/02/17 08:20:45;;;;;;;57.83;38.42;;;10.20;99.90;;;;;;5011416;28;20049;-79
2023/02/17 08:23:14;;;;;;;54.70;34.65;;;10.20;99.90;;;;;;5018645;28;20392;-78
2023/02/17 08:25:39;;;;;;;58.80;36.35;;;10.20;99.90;;;;;;5011839;28;20467;-78
2023/02/17 08:28:05;;;;;;;55.83;37.50;;;10.30;99.90;;;;;;5014905;28;20044;-78
2023/02/17 08:30:34;;;;;;;49.53;32.40;;;10.30;99.90;;;;;;5010735;28;20052;-78
2023/02/17 08:33:00;;;;;;;50.03;31.38;;;10.40;99.90;;;;;;5010569;28;20068;-78
2023/02/17 08:35:27;;;;;;;52.20;33.42;;;10.40;99.90;;;;;;5013444;28;20480;-78
2023/02/17 08:37:52;;;;;;;48.55;33.45;;;10.40;99.90;;;;;;5012024;28;20508;-77
2023/02/17 08:40:18;;;;;;;46.38;31.33;;;10.50;99.90;;;;;;5017722;28;20092;-75
2023/02/17 08:42:44;;;;;;;42.17;29.63;;;10.50;99.90;;;;;;4980706;28;20037;-73
2023/02/17 08:45:13;;;;;;;42.13;30.38;;;10.50;99.90;;;;;;4998138;28;20037;-75
2023/02/17 08:47:39;;;;;;;45.00;30.35;;;10.50;99.90;;;;;;5006957;28;20131;-76
2023/02/17 08:50:07;;;;;;;42.72;28.73;;;10.60;99.90;;;;;;4983525;28;20100;-75
2023/02/17 08:52:33;;;;;;;38.13;27.48;;;10.60;99.90;;;;;;5016075;28;20061;-74
2023/02/17 08:54:59;;;;;;;40.70;27.33;;;10.70;99.90;;;;;;5028788;28;20124;-74
2023/02/17 08:57:28;;;;;;;39.25;28.30;;;10.70;99.90;;;;;;5011622;28;20241;-77
2023/02/17 08:59:54;;;;;;;33.83;25.38;;;10.70;99.90;;;;;;5008610;28;20068;-76
2023/02/17 09:02:21;;;;;;;31.58;24.38;;;10.70;99.90;;;;;;5017529;28;20303;-76
2023/02/17 09:04:46;;;;;;;38.58;26.52;;;10.80;99.90;;;;;;5009455;28;20058;-75
2023/02/17 09:07:13;;;;;;;29.13;22.95;;;10.80;99.90;;;;;;5017936;28;20092;-75
2023/02/17 09:09:40;;;;;;;28.48;21.83;;;10.80;99.90;;;;;;5005987;28;20069;-79
2023/02/17 09:12:07;;;;;;;28.55;23.05;;;10.80;99.90;;;;;;5015373;28;20582;-77
2023/02/17 09:14:33;;;;;;;25.20;20.20;;;10.90;99.90;;;;;;5017884;28;20531;-76
2023/02/17 09:16:59;;;;;;;26.90;20.33;;;10.90;99.90;;;;;;5017091;28;20532;-75
2023/02/17 09:19:26;;;;;;;26.05;17.63;;;10.90;99.90;;;;;;5019598;28;20105;-74
2023/02/17 09:21:52;;;;;;;25.05;19.52;;;11.00;99.90;;;;;;5015780;28;20114;-75
2023/02/17 09:24:18;;;;;;;25.17;18.27;;;11.10;99.90;;;;;;5032445;28;20077;-77
2023/02/17 09:26:44;;;;;;;24.42;18.90;;;11.00;99.90;;;;;;5016270;28;20464;-76
2023/02/17 09:29:10;;;;;;;22.63;16.40;;;11.10;99.90;;;;;;5018140;28;20045;-76
2023/02/17 09:31:36;;;;;;;23.02;16.23;;;11.10;99.90;;;;;;5021084;28;20094;-76
2023/02/17 09:34:07;;;;;;;19.45;15.02;;;11.10;99.90;;;;;;5014672;28;20099;-76
2023/02/17 09:36:36;;;;;;;;;;;11.10;99.90;;;;;;5005393;28;20050;-75
2023/02/17 09:39:02;;;;;;;21.98;16.95;;;11.10;99.90;;;;;;5010384;28;19928;-74
2023/02/17 09:41:50;;;;;;;20.50;15.52;;;11.10;99.90;;;;;;5019834;28;20057;-74
2023/02/17 09:44:41;;;;;;;21.65;15.18;;;11.10;99.90;;;;;;5012885;28;20053;-75
2023/02/17 09:47:10;;;;;;;;;;;11.10;99.90;;;;;;5024649;28;20516;-76
2023/02/17 09:49:39;;;;;;;24.70;15.52;;;11.10;99.90;;;;;;5008507;28;20347;-74
2023/02/17 09:52:43;;;;;;;19.48;14.75;;;11.10;99.90;;;;;;5012860;28;20049;-75
2023/02/17 09:55:17;;;;;;;21.08;15.20;;;11.10;99.90;;;;;;5023686;28;20057;-74
2023/02/17 09:58:07;;;;;;;22.15;15.02;;;11.10;99.90;;;;;;5018262;28;20541;-73
2023/02/17 10:00:40;;;;;;;23.98;14.52;;;11.10;99.90;;;;;;5018740;28;20045;-76
2023/02/17 10:03:29;;;;;;;24.10;15.38;;;11.10;99.90;;;;;;5017827;28;20080;-75
2023/02/17 10:06:10;;;;;;;20.95;14.82;;;11.10;99.90;;;;;;5024264;28;20531;-75
2023/02/17 10:08:57;;;;;;;22.98;14.82;;;11.10;99.90;;;;;;5014433;28;20138;-77
2023/02/17 10:11:29;;;;;;;19.42;13.88;;;11.10;99.90;;;;;;5018568;28;20057;-77
2023/02/17 10:14:02;;;;;;;20.65;13.68;;;11.10;99.90;;;;;;5002559;28;20048;-75
2023/02/17 10:16:34;;;;;;;19.02;12.60;;;11.10;99.90;;;;;;5007066;28;20049;-74
2023/02/17 10:19:27;;;;;;;19.42;13.10;;;11.10;99.90;;;;;;5011581;28;20045;-73
2023/02/17 10:22:17;;;;;;;19.90;12.95;;;11.10;99.90;;;;;;5009263;28;20148;-75
2023/02/17 10:24:43;;;;;;;20.67;12.88;;;11.10;99.90;;;;;;5013903;28;20041;-75
2023/02/17 10:27:41;;;;;;;20.60;13.02;;;11.10;99.90;;;;;;5034086;28;20037;-74
2023/02/17 10:30:28;;;;;;;18.13;12.60;;;11.20;99.90;;;;;;5017424;28;20088;-75
2023/02/17 10:33:10;;;;;;;22.35;12.52;;;11.10;99.90;;;;;;5016302;28;20053;-75
2023/02/17 10:35:50;;;;;;;15.70;11.07;;;11.10;99.90;;;;;;5014922;28;20132;-74
2023/02/17 10:38:51;;;;;;;17.20;10.83;;;11.10;99.90;;;;;;5017249;28;20037;-74
2023/02/17 10:41:25;;;;;;;17.45;10.90;;;11.10;99.90;;;;;;5010228;28;20830;-75
2023/02/17 10:43:51;;;;;;;17.65;11.07;;;11.10;99.90;;;;;;5019302;28;20388;-74
2023/02/17 10:46:26;;;;;;;18.30;10.95;;;11.10;99.90;;;;;;5016108;28;20053;-76
2023/02/17 10:48:54;;;;;;;17.50;9.65;;;11.10;99.90;;;;;;5016744;28;20064;-74
2023/02/17 10:51:27;;;;;;;17.65;10.85;;;11.10;99.90;;;;;;4992922;28;20057;-72
2023/02/17 10:54:02;;;;;;;16.00;10.02;;;11.10;99.90;;;;;;5015632;28;20404;-74
2023/02/17 10:56:52;;;;;;;15.27;9.88;;;11.20;99.90;;;;;;4996693;28;20053;-74
2023/02/17 10:59:31;;;;;;;15.43;9.75;;;11.20;99.90;;;;;;5019464;28;20041;-74
2023/02/17 11:02:18;;;;;;;17.42;10.23;;;11.20;99.90;;;;;;5019393;28;20565;-75
2023/02/17 11:04:46;;;;;;;15.55;10.00;;;11.10;99.90;;;;;;5019739;28;20053;-75
2023/02/17 11:07:15;;;;;;;15.02;9.43;;;11.20;99.90;;;;;;5019604;28;20080;-74
2023/02/17 11:09:48;;;;;;;16.70;10.00;;;11.10;99.90;;;;;;5017544;28;20034;-74
2023/02/17 11:12:31;;;;;;;14.18;10.10;;;11.10;99.90;;;;;;5025752;28;20076;-73
2023/02/17 11:14:58;;;;;;;16.02;9.98;;;11.10;99.90;;;;;;5031068;28;20108;-73
2023/02/17 11:17:38;;;;;;;17.33;9.57;;;11.10;99.90;;;;;;5014558;28;20072;-74
2023/02/17 11:20:08;;;;;;;12.98;8.95;;;11.10;99.90;;;;;;5035498;28;20057;-74
2023/02/17 11:22:43;;;;;;;;;;;11.10;99.90;;;;;;5010914;28;20049;-73
2023/02/17 11:25:37;;;;;;;14.75;9.38;;;11.10;99.90;;;;;;5017074;28;20300;-74
2023/02/17 11:28:09;;;;;;;13.40;9.48;;;11.10;99.90;;;;;;5015015;28;20065;-73
2023/02/17 11:30:40;;;;;;;14.32;8.40;;;11.10;99.90;;;;;;5020482;28;20505;-74
2023/02/17 11:33:29;;;;;;;13.82;8.68;;;11.10;99.90;;;;;;5020425;28;20075;-73
2023/02/17 11:35:58;;;;;;;15.35;8.55;;;11.10;99.90;;;;;;5023721;28;20358;-74
2023/02/17 11:38:43;;;;;;;15.02;8.75;;;11.10;99.90;;;;;;5022286;28;20040;-73
2023/02/17 11:41:09;;;;;;;13.73;8.05;;;11.10;99.90;;;;;;5038491;28;20529;-73
2023/02/17 11:43:37;;;;;;;15.23;8.68;;;11.10;99.90;;;;;;5014686;28;20497;-74
2023/02/17 11:46:22;;;;;;;13.32;8.68;;;11.10;99.90;;;;;;5003343;28;20045;-74
2023/02/17 11:49:06;;;;;;;14.75;7.75;;;11.20;99.90;;;;;;5017924;28;20061;-72
2023/02/17 11:52:02;;;;;;;17.80;9.10;;;11.20;99.90;;;;;;5020707;28;20424;-73
2023/02/17 11:54:41;;;;;;;13.55;7.70;;;11.20;99.90;;;;;;5005979;28;20049;-73
2023/02/17 11:57:39;;;;;;;13.07;7.82;;;11.30;99.90;;;;;;5019836;28;20045;-73
2023/02/17 12:00:28;;;;;;;14.15;7.75;;;11.30;99.90;;;;;;5017380;28;20045;-73
2023/02/17 12:03:15;;;;;;;11.23;7.13;;;11.30;99.90;;;;;;5017467;28;20046;-74
2023/02/17 12:06:07;;;;;;;11.70;7.53;;;11.30;99.90;;;;;;5011983;28;20060;-74
2023/02/17 12:08:51;;;;;;;12.98;6.40;;;11.30;99.90;;;;;;5019767;28;20052;-72
2023/02/17 12:11:44;;;;;;;15.63;6.50;;;11.30;99.90;;;;;;5017118;28;20108;-73
2023/02/17 12:14:36;;;;;;;13.27;6.72;;;11.40;99.90;;;;;;5020876;28;20045;-73
2023/02/17 12:17:15;;;;;;;12.75;6.55;;;11.40;99.90;;;;;;5021058;28;20085;-73
2023/02/17 12:20:21;;;;;;;13.27;6.45;;;11.50;99.90;;;;;;5020587;28;20463;-74
2023/02/17 12:23:28;;;;;;;15.60;6.40;;;11.50;99.90;;;;;;5016870;28;20064;-74
2023/02/17 12:26:17;;;;;;;15.65;6.88;;;11.50;99.90;;;;;;4997236;28;20052;-73
2023/02/17 12:29:20;;;;;;;11.73;6.20;;;11.50;99.90;;;;;;5006373;28;20054;-74
2023/02/17 12:31:53;;;;;;;11.95;6.43;;;11.60;99.90;;;;;;5010411;28;20041;-73
2023/02/17 12:34:29;;;;;;;12.18;6.53;;;11.50;99.90;;;;;;5004293;28;20206;-74
2023/02/17 12:36:57;;;;;;;14.48;5.60;;;11.60;99.90;;;;;;5016132;28;20266;-73
2023/02/17 12:39:44;;;;;;;11.55;5.90;;;11.60;99.90;;;;;;5011877;28;20560;-72
2023/02/17 12:42:24;;;;;;;13.38;5.70;;;11.60;99.90;;;;;;5015244;28;20042;-73
2023/02/17 12:44:58;;;;;;;13.50;6.00;;;11.60;99.90;;;;;;4991816;28;20058;-74
2023/02/17 12:48:07;;;;;;;12.63;5.57;;;11.70;99.90;;;;;;5004165;28;20110;-72
2023/02/17 12:50:41;;;;;;;10.45;5.45;;;11.70;99.90;;;;;;4988146;28;20145;-75
2023/02/17 12:53:35;;;;;;;14.00;6.20;;;11.70;99.90;;;;;;5018514;28;20060;-74
2023/02/17 12:56:07;;;;;;;13.50;6.10;;;11.70;99.90;;;;;;5012380;28;20045;-74
2023/02/17 12:58:33;;;;;;;12.65;6.10;;;11.70;99.90;;;;;;5009998;28;20062;-74
2023/02/17 13:01:10;;;;;;;12.13;6.18;;;11.70;99.90;;;;;;5010157;28;20075;-74
2023/02/17 13:03:39;;;;;;;13.88;5.97;;;11.70;99.90;;;;;;5013248;28;20049;-74